createdAt,value
2023-04-24T00:02:46.232Z,0.00
2023-04-24T00:07:46.323Z,0.00
2023-04-24T00:12:46.457Z,0.00
2023-04-24T00:17:45.754Z,0.00
2023-04-24T00:22:46.955Z,0.00
2023-04-24T00:27:47.986Z,0.00
2023-04-24T00:32:49.130Z,0.00
2023-04-24T00:37:51.187Z,0.00
2023-04-24T00:42:50.274Z,0.00
2023-04-24T00:47:51.418Z,0.00
2023-04-24T00:52:52.518Z,0.00
2023-04-24T00:57:54.636Z,0.00
2023-04-24T01:02:55.845Z,0.00
2023-04-24T01:07:54.950Z,0.00
2023-04-24T01:12:56.171Z,0.00
2023-04-24T01:17:57.341Z,0.00
2023-04-24T01:22:58.514Z,0.00
2023-04-24T01:27:59.614Z,0.00
2023-04-24T01:33:00.753Z,0.00
2023-04-24T01:38:01.840Z,0.00
2023-04-24T01:43:02.984Z,0.00
2023-04-24T01:48:05.093Z,0.00
2023-04-24T01:53:04.171Z,0.00
2023-04-24T01:58:06.235Z,0.00
2023-04-24T02:03:06.519Z,0.00
2023-04-24T02:08:05.589Z,0.00
2023-04-24T02:13:08.670Z,0.00
2023-04-24T02:18:07.738Z,0.00
2023-04-24T02:23:08.842Z,0.00
2023-04-24T02:28:09.951Z,0.00
2023-04-24T02:33:11.081Z,0.00
2023-04-24T02:38:12.155Z,0.00
2023-04-24T02:43:12.274Z,0.00
2023-04-24T02:48:14.388Z,0.00
2023-04-24T02:53:14.525Z,0.00
2023-04-24T02:58:13.655Z,0.00
2023-04-24T03:03:15.859Z,0.00
2023-04-24T03:08:15.054Z,0.00
2023-04-24T03:13:20.025Z,0.00
2023-04-24T03:18:18.158Z,0.00
2023-04-24T03:23:18.218Z,0.00
2023-04-24T03:28:19.311Z,0.00
2023-04-24T03:33:18.416Z,0.00
2023-04-24T03:38:19.506Z,0.00
2023-04-24T03:43:21.593Z,0.00
2023-04-24T03:48:21.689Z,0.00
2023-04-24T03:53:22.841Z,0.00
2023-04-24T03:58:21.902Z,0.00
2023-04-24T04:03:23.422Z,4.00
2023-04-24T04:08:24.650Z,8.00
2023-04-24T04:13:24.747Z,16.00
2023-04-24T04:18:24.846Z,28.00
2023-04-24T04:23:23.908Z,32.00
2023-04-24T04:28:24.987Z,36.00
2023-04-24T04:33:26.042Z,36.00
2023-04-24T04:38:28.103Z,40.00
2023-04-24T04:43:28.184Z,68.00
2023-04-24T04:48:28.263Z,132.00
2023-04-24T04:53:27.348Z,160.00
2023-04-24T04:58:27.415Z,316.00
2023-04-24T05:03:29.581Z,508.00
2023-04-24T05:08:29.761Z,620.00
2023-04-24T05:13:38.999Z,764.00
2023-04-24T05:18:28.751Z,640.00
2023-04-24T05:23:30.860Z,404.00
2023-04-24T05:28:29.993Z,388.00
2023-04-24T05:33:32.082Z,412.00
2023-04-24T05:38:32.164Z,476.00
2023-04-24T05:43:32.229Z,952.00
2023-04-24T05:48:31.295Z,744.00
2023-04-24T05:53:32.421Z,636.00
2023-04-24T05:58:34.484Z,640.00
2023-04-24T06:03:34.754Z,536.00
2023-04-24T06:08:34.847Z,472.00
2023-04-24T06:13:33.959Z,496.00
2023-04-24T06:18:36.169Z,572.00
2023-04-24T06:23:35.239Z,720.00
2023-04-24T06:28:40.210Z,668.00
2023-04-24T06:33:39.363Z,644.00
2023-04-24T06:38:39.382Z,536.00
2023-04-24T06:43:38.462Z,472.00
2023-04-24T06:48:40.537Z,964.00
2023-04-24T06:53:39.636Z,1308.00
2023-04-24T06:58:42.002Z,1560.00
2023-04-24T07:03:41.231Z,1896.00
2023-04-24T07:08:42.390Z,2224.00
2023-04-24T07:13:43.500Z,4104.00
2023-04-24T07:18:44.578Z,4960.00
2023-04-24T07:23:45.761Z,4536.00
2023-04-24T07:28:47.118Z,2956.00
2023-04-24T07:33:48.191Z,3244.00
2023-04-24T07:38:51.263Z,4924.00
2023-04-24T07:43:50.493Z,6856.00
2023-04-24T07:49:01.840Z,7272.00
2023-04-24T07:53:51.650Z,5548.00
2023-04-24T07:58:52.761Z,5432.00
2023-04-24T08:03:54.005Z,6032.00
2023-04-24T08:08:55.344Z,7188.00
2023-04-24T08:13:56.447Z,9468.00
2023-04-24T08:18:57.648Z,9032.00
2023-04-24T08:23:58.683Z,8344.00
2023-04-24T08:28:59.820Z,4548.00
2023-04-24T08:34:01.933Z,3492.00
2023-04-24T08:39:01.024Z,2740.00
2023-04-24T08:44:02.193Z,2448.00
2023-04-24T08:49:05.263Z,2608.00
2023-04-24T08:54:04.655Z,2888.00
2023-04-24T08:59:05.785Z,2836.00
2023-04-24T09:04:12.152Z,3128.00
2023-04-24T09:09:07.701Z,7236.00
2023-04-24T09:14:09.838Z,9268.00
2023-04-24T09:19:08.965Z,9252.00
2023-04-24T09:24:10.104Z,8652.00
2023-04-24T09:29:11.285Z,9820.00
2023-04-24T09:34:11.381Z,11016.00
2023-04-24T09:39:12.779Z,9348.00
2023-04-24T09:44:14.161Z,5120.00
2023-04-24T09:49:15.269Z,2280.00
2023-04-24T09:54:16.399Z,3556.00
2023-04-24T09:59:17.507Z,8184.00
2023-04-24T10:04:18.942Z,6772.00
2023-04-24T10:09:20.086Z,5600.00
2023-04-24T10:14:21.173Z,4596.00
2023-04-24T10:19:22.315Z,7920.00
2023-04-24T10:24:23.454Z,7656.00
2023-04-24T10:29:24.585Z,6000.00
2023-04-24T10:34:25.710Z,6712.00
2023-04-24T10:39:27.230Z,5196.00
2023-04-24T10:44:27.069Z,4292.00
2023-04-24T10:49:28.118Z,3856.00
2023-04-24T10:54:29.247Z,3248.00
2023-04-24T10:59:30.374Z,3584.00
2023-04-24T11:04:33.520Z,4656.00
2023-04-24T11:09:31.685Z,5836.00
2023-04-24T11:14:32.826Z,8812.00
2023-04-24T11:19:33.953Z,9828.00
2023-04-24T11:24:35.330Z,9316.00
2023-04-24T11:29:36.500Z,8740.00
2023-04-24T11:34:37.728Z,9204.00
2023-04-24T11:39:38.803Z,8616.00
2023-04-24T11:44:40.001Z,7484.00
2023-04-24T11:49:43.120Z,7468.00
2023-04-24T11:54:42.247Z,6168.00
2023-04-24T11:59:43.339Z,9284.00
2023-04-24T12:04:44.919Z,11820.00
2023-04-24T12:09:57.100Z,8168.00
2023-04-24T12:14:44.034Z,6288.00
2023-04-24T12:19:45.181Z,3152.00
2023-04-24T12:24:45.294Z,2616.00
2023-04-24T12:29:46.368Z,2668.00
2023-04-24T12:34:47.467Z,1728.00
2023-04-24T12:39:48.544Z,3504.00
2023-04-24T12:44:49.678Z,7248.00
2023-04-24T12:49:50.745Z,10556.00
2023-04-24T12:54:52.851Z,10412.00
2023-04-24T12:59:51.908Z,5300.00
2023-04-24T13:04:53.133Z,2484.00
2023-04-24T13:09:54.389Z,1872.00
2023-04-24T13:14:55.639Z,2284.00
2023-04-24T13:19:57.709Z,4136.00
2023-04-24T13:24:56.770Z,4508.00
2023-04-24T13:29:59.832Z,5744.00
2023-04-24T13:34:58.895Z,7712.00
2023-04-24T13:39:59.960Z,8356.00
2023-04-24T13:45:05.902Z,7368.00
2023-04-24T13:50:01.964Z,6096.00
2023-04-24T13:55:03.049Z,5072.00
2023-04-24T14:00:04.163Z,6532.00
2023-04-24T14:05:05.265Z,5528.00
2023-04-24T14:10:06.520Z,7884.00
2023-04-24T14:15:07.557Z,9616.00
2023-04-24T14:20:08.775Z,8884.00
2023-04-24T14:25:09.851Z,8660.00
2023-04-24T14:30:10.918Z,9444.00
2023-04-24T14:35:12.976Z,6412.00
2023-04-24T14:40:29.797Z,3112.00
2023-04-24T14:45:12.980Z,2120.00
2023-04-24T14:50:13.074Z,2376.00
2023-04-24T14:55:13.157Z,5860.00
2023-04-24T15:00:12.236Z,8696.00
2023-04-24T15:05:15.771Z,8720.00
2023-04-24T15:10:13.079Z,5384.00
2023-04-24T15:15:14.083Z,4432.00
2023-04-24T15:20:15.157Z,7548.00
2023-04-24T15:25:16.247Z,7548.00
2023-04-24T15:30:17.316Z,7776.00
2023-04-24T15:35:18.381Z,3620.00
2023-04-24T15:40:19.493Z,3508.00
2023-04-24T15:45:20.579Z,2408.00
2023-04-24T15:50:21.637Z,2056.00
2023-04-24T15:55:24.485Z,1096.00
2023-04-24T16:00:23.549Z,1012.00
2023-04-24T16:05:24.619Z,1504.00
2023-04-24T16:10:26.693Z,2928.00
2023-04-24T16:15:29.671Z,8624.00
2023-04-24T16:20:27.931Z,9000.00
2023-04-24T16:25:27.107Z,7804.00
2023-04-24T16:30:29.196Z,6876.00
2023-04-24T16:35:28.297Z,6840.00
2023-04-24T16:40:29.396Z,6068.00
2023-04-24T16:45:30.424Z,5528.00
2023-04-24T16:50:31.508Z,5040.00
2023-04-24T16:55:33.762Z,4348.00
2023-04-24T17:00:33.165Z,1916.00
2023-04-24T17:05:35.599Z,1832.00
2023-04-24T17:10:35.784Z,1700.00
2023-04-24T17:15:34.940Z,1536.00
2023-04-24T17:20:41.171Z,1592.00
2023-04-24T17:25:41.503Z,1656.00
2023-04-24T17:30:37.658Z,1148.00
2023-04-24T17:35:36.741Z,852.00
2023-04-24T17:40:38.381Z,460.00
2023-04-24T17:45:41.583Z,240.00
2023-04-24T17:50:39.093Z,152.00
2023-04-24T17:55:40.273Z,84.00
2023-04-24T18:00:39.542Z,48.00
2023-04-24T18:05:41.308Z,32.00
2023-04-24T18:10:40.573Z,44.00
2023-04-24T18:15:41.704Z,80.00
2023-04-24T18:20:44.000Z,64.00
2023-04-24T18:25:43.515Z,48.00
2023-04-24T18:30:43.130Z,28.00
2023-04-24T18:35:43.541Z,8.00
2023-04-24T18:40:42.894Z,4.00
2023-04-24T18:45:44.402Z,4.00
2023-04-24T18:50:45.809Z,4.00
2023-04-24T18:55:45.175Z,0.00
2023-04-24T19:00:46.654Z,0.00
2023-04-24T19:05:46.162Z,0.00
2023-04-24T19:10:46.641Z,0.00
2023-04-24T19:15:46.120Z,0.00
2023-04-24T19:20:49.257Z,0.00
2023-04-24T19:25:48.646Z,0.00
2023-04-24T19:30:48.171Z,0.00
2023-04-24T19:35:47.564Z,0.00
2023-04-24T19:40:49.048Z,0.00
2023-04-24T19:45:49.348Z,0.00
2023-04-24T19:50:49.463Z,0.00
2023-04-24T19:55:48.778Z,0.00
2023-04-24T20:00:49.953Z,0.00
2023-04-24T20:05:51.438Z,0.00
2023-04-24T20:10:50.690Z,0.00
2023-04-24T20:15:52.100Z,0.00
2023-04-24T20:20:51.236Z,0.00
2023-04-24T20:25:53.332Z,0.00
2023-04-24T20:30:52.530Z,0.00
2023-04-24T20:35:54.195Z,0.00
2023-04-24T20:40:58.000Z,0.00
2023-04-24T20:45:53.382Z,0.00
2023-04-24T20:50:53.581Z,0.00
2023-04-24T20:55:54.707Z,0.00
2023-04-24T21:00:55.905Z,0.00
2023-04-24T21:05:58.126Z,0.00
2023-04-24T21:10:58.190Z,0.00
2023-04-24T21:15:59.311Z,0.00
2023-04-24T21:20:58.432Z,0.00
2023-04-24T21:25:59.643Z,0.00
2023-04-24T21:31:00.799Z,0.00
2023-04-24T21:36:02.079Z,0.00
2023-04-24T21:41:03.111Z,0.00
2023-04-24T21:46:04.293Z,0.00
2023-04-24T21:51:05.388Z,0.00
2023-04-24T21:56:06.561Z,0.00
2023-04-24T22:01:07.775Z,0.00
2023-04-24T22:06:08.843Z,0.00
2023-04-24T22:11:19.931Z,0.00
2023-04-24T22:16:10.040Z,0.00
2023-04-24T22:21:11.071Z,0.00
2023-04-24T22:26:13.156Z,0.00
2023-04-24T22:31:12.351Z,0.00
2023-04-24T22:36:13.513Z,0.00
2023-04-24T22:41:14.586Z,0.00
2023-04-24T22:46:15.720Z,0.00
2023-04-24T22:51:15.850Z,0.00
2023-04-24T22:56:17.934Z,0.00
2023-04-24T23:01:17.117Z,0.00
2023-04-24T23:06:18.236Z,0.00
2023-04-24T23:11:19.353Z,0.00
2023-04-24T23:16:20.520Z,0.00
2023-04-24T23:21:21.553Z,0.00
2023-04-24T23:26:22.834Z,0.00
2023-04-24T23:31:23.946Z,0.00
2023-04-24T23:36:26.050Z,0.00
2023-04-24T23:41:25.176Z,0.00
2023-04-24T23:46:27.366Z,0.00
2023-04-24T23:51:26.719Z,0.00
2023-04-24T23:56:27.806Z,0.00
